createdAt,value
2022-10-18T00:07:34.000Z,100492.6
2022-10-18T00:12:35.000Z,100499.33
2022-10-18T00:17:34.000Z,100485.92
2022-10-18T00:22:35.000Z,100481.2
2022-10-18T00:27:35.000Z,100470.9
2022-10-18T00:32:35.000Z,100465.2
2022-10-18T00:37:34.000Z,100453.03
2022-10-18T00:42:35.000Z,100456.7
2022-10-18T00:47:34.000Z,100424.24
2022-10-18T00:52:35.000Z,100421.6
2022-10-18T00:57:34.000Z,100411.65
2022-10-18T01:02:35.000Z,100414.36
2022-10-18T01:07:34.000Z,100410.61
2022-10-18T01:12:34.000Z,100410.61
2022-10-18T01:17:34.000Z,100407.47
2022-10-18T01:22:35.000Z,100398.7
2022-10-18T01:27:35.000Z,100405.51
2022-10-18T01:32:35.000Z,100411.6
2022-10-18T01:37:34.000Z,100417.22
2022-10-18T01:42:35.000Z,100411.22
2022-10-18T01:47:35.000Z,100409.99
2022-10-18T01:52:34.000Z,100403.73
2022-10-18T01:57:35.000Z,100388
2022-10-18T02:02:35.000Z,100382.97
2022-10-18T02:07:34.000Z,100384.03
2022-10-18T02:12:34.000Z,100380.84
2022-10-18T02:17:34.000Z,100372.81
2022-10-18T02:22:34.000Z,100360.98
2022-10-18T02:27:35.000Z,100360.98
2022-10-18T02:32:34.000Z,100364.91
2022-10-18T02:37:35.000Z,100356.71
2022-10-18T02:42:34.000Z,100355.43
2022-10-18T02:47:35.000Z,100349.96
2022-10-18T02:52:34.000Z,100335.28
2022-10-18T02:57:34.000Z,100336.02
2022-10-18T03:02:35.000Z,100322.93
2022-10-18T03:07:34.000Z,100311.25
2022-10-18T03:12:35.000Z,100300.19
2022-10-18T03:17:34.000Z,100293.87
2022-10-18T03:22:35.000Z,100281.13
2022-10-18T03:27:34.000Z,100274.94
2022-10-18T03:32:35.000Z,100267.72
2022-10-18T03:37:35.000Z,100263.12
2022-10-18T03:42:35.000Z,100263.12
2022-10-18T03:47:34.000Z,100249.54
2022-10-18T03:52:34.000Z,100227.58
2022-10-18T03:57:35.000Z,100222.51
2022-10-18T04:02:35.000Z,100223.48
2022-10-18T04:12:34.000Z,100197.06
2022-10-18T04:17:35.000Z,100178.49
2022-10-18T04:22:34.000Z,100175.18
2022-10-18T04:27:35.000Z,100167.4
2022-10-18T04:32:35.000Z,100169.36
2022-10-18T04:37:35.000Z,100171
2022-10-18T04:42:34.000Z,100158.52
2022-10-18T04:47:35.000Z,100163.56
2022-10-18T04:52:34.000Z,100162.38
2022-10-18T04:57:34.000Z,100151.93
2022-10-18T05:02:34.000Z,100147.78
2022-10-18T05:07:35.000Z,100142.02
2022-10-18T05:12:34.000Z,100133.66
2022-10-18T05:17:34.000Z,100133.66
2022-10-18T05:22:35.000Z,100126.66
2022-10-18T05:27:35.000Z,100124.67
2022-10-18T05:32:35.000Z,100130.56
2022-10-18T05:37:38.000Z,100132.99
2022-10-18T05:42:35.000Z,100133.72
2022-10-18T05:52:34.000Z,100133.66
2022-10-18T05:57:34.000Z,100138.16
2022-10-18T06:02:35.000Z,100143.42
2022-10-18T06:07:35.000Z,100133.04
2022-10-18T06:12:35.000Z,100133.3
2022-10-18T06:17:40.000Z,100133.3
2022-10-18T06:22:35.000Z,100121.31
2022-10-18T06:27:34.000Z,100105.78
2022-10-18T06:37:34.000Z,100078.96
2022-10-18T06:42:34.000Z,100067.33
2022-10-18T06:47:34.000Z,100056.61
2022-10-18T06:52:34.000Z,100027.91
2022-10-18T06:57:35.000Z,100005.95
2022-10-18T07:02:34.000Z,99984.91
2022-10-18T07:07:35.000Z,99984.91
2022-10-18T07:12:34.000Z,99958.77
2022-10-18T07:17:34.000Z,99929.31
2022-10-18T07:22:40.000Z,99938.81
2022-10-18T07:27:35.000Z,99918.35
2022-10-18T07:32:35.000Z,99904.06
2022-10-18T07:37:40.000Z,99888.02
2022-10-18T07:42:35.000Z,99872.84
2022-10-18T07:47:34.000Z,99845.99
2022-10-18T07:52:35.000Z,99831.92
2022-10-18T07:57:34.000Z,99804.71
2022-10-18T08:07:35.000Z,99753.66
2022-10-18T08:12:34.000Z,99714.61
2022-10-18T08:17:35.000Z,99693.13
2022-10-18T08:22:35.000Z,99678.68
2022-10-18T08:27:34.000Z,99656.66
2022-10-18T08:32:34.000Z,99635.57
2022-10-18T08:37:35.000Z,99607.39
2022-10-18T08:42:35.000Z,99560.34
2022-10-18T08:47:35.000Z,99520.99
2022-10-18T08:52:35.000Z,99520.99
2022-10-18T08:57:35.000Z,99470.59
2022-10-18T09:02:34.000Z,99449.51
2022-10-18T09:07:35.000Z,99433
2022-10-18T09:12:34.000Z,99369.86
2022-10-18T09:17:35.000Z,99369.12
2022-10-18T09:22:35.000Z,99376.45
2022-10-18T09:27:35.000Z,99405.65
2022-10-18T09:32:34.000Z,99415.11
2022-10-18T09:37:35.000Z,99414.06
2022-10-18T09:42:35.000Z,99411.84
2022-10-18T09:47:34.000Z,99377.82
2022-10-18T09:52:34.000Z,99363.73
2022-10-18T09:57:35.000Z,99361.77
2022-10-18T10:02:35.000Z,99346.79
2022-10-18T10:07:34.000Z,99346.79
2022-10-18T10:12:35.000Z,99332.02
2022-10-18T10:17:34.000Z,99320.25
2022-10-18T10:22:35.000Z,99302.06
2022-10-18T10:27:35.000Z,99292.28
2022-10-18T10:32:34.000Z,99273.25
2022-10-18T10:37:34.000Z,99254.5
2022-10-18T10:42:34.000Z,99235.7
2022-10-18T10:47:35.000Z,99228.68
2022-10-18T10:52:38.000Z,99220.92
2022-10-18T10:57:35.000Z,99208.71
2022-10-18T11:02:34.000Z,99196.64
2022-10-18T11:07:34.000Z,99188.26
2022-10-18T11:12:34.000Z,99170.53
2022-10-18T11:17:34.000Z,99159.68
2022-10-18T11:22:35.000Z,99159.68
2022-10-18T11:27:35.000Z,99141.22
2022-10-18T11:32:35.000Z,99140.04
2022-10-18T11:37:41.000Z,99142.57
2022-10-18T11:42:35.000Z,99142.55
2022-10-18T11:47:35.000Z,99144.74
2022-10-18T11:52:34.000Z,99138.4
2022-10-18T11:57:35.000Z,99129.55
2022-10-18T12:02:35.000Z,99134.38
2022-10-18T12:07:41.000Z,99121.97
2022-10-18T12:12:34.000Z,99130.89
2022-10-18T12:17:52.000Z,99127.14
2022-10-18T12:22:35.000Z,99119.85
2022-10-18T12:27:34.000Z,99122.57
2022-10-18T12:32:35.000Z,99120.89
2022-10-18T12:37:35.000Z,99120.89
2022-10-18T12:42:35.000Z,99131.54
2022-10-18T12:47:34.000Z,99127.57
2022-10-18T12:52:34.000Z,99133.78
2022-10-18T12:57:35.000Z,99131.61
2022-10-18T13:02:35.000Z,99123.87
2022-10-18T13:07:34.000Z,99118.57
2022-10-18T13:12:34.000Z,99125.15
2022-10-18T13:17:35.000Z,99130.67
2022-10-18T13:22:34.000Z,99134.4
2022-10-18T13:32:34.000Z,99141.78
2022-10-18T13:37:34.000Z,99143.04
2022-10-18T13:42:35.000Z,99135.91
2022-10-18T13:47:34.000Z,99143.23
2022-10-18T13:52:35.000Z,99144.41
2022-10-18T13:57:34.000Z,99151.97
2022-10-18T14:03:00.000Z,99161.32
2022-10-18T14:07:35.000Z,99160.06
2022-10-18T14:12:34.000Z,99157.96
2022-10-18T14:17:35.000Z,99161.67
2022-10-18T14:22:34.000Z,99167.26
2022-10-18T14:27:34.000Z,99173.22
2022-10-18T14:32:35.000Z,99173.22
2022-10-18T14:37:35.000Z,99178.55
2022-10-18T14:42:34.000Z,99182.67
2022-10-18T14:47:35.000Z,99181.16
2022-10-18T14:52:36.000Z,99170.44
2022-10-18T14:57:35.000Z,99172.94
2022-10-18T15:02:35.000Z,99186.68
2022-10-18T15:07:35.000Z,99196.72
2022-10-18T15:12:34.000Z,99194.92
2022-10-18T15:17:35.000Z,99195.76
2022-10-18T15:22:42.000Z,99204
2022-10-18T15:27:35.000Z,99219.28
2022-10-18T15:32:34.000Z,99234.49
2022-10-18T15:37:34.000Z,99244.53
2022-10-18T15:42:35.000Z,99254.87
2022-10-18T15:47:34.000Z,99254.87
2022-10-18T15:52:35.000Z,99266.78
2022-10-18T15:57:39.000Z,99274.39
2022-10-18T16:02:35.000Z,99281.54
2022-10-18T16:07:35.000Z,99292.91
2022-10-18T16:12:34.000Z,99299.64
2022-10-18T16:17:34.000Z,99304.25
2022-10-18T16:22:35.000Z,99313.63
2022-10-18T16:27:35.000Z,99307.1
2022-10-18T16:32:34.000Z,99324.14
2022-10-18T16:37:35.000Z,99323.28
2022-10-18T16:42:34.000Z,99317.67
2022-10-18T16:47:35.000Z,99324.36
2022-10-18T16:52:34.000Z,99341.73
2022-10-18T16:57:35.000Z,99350.25
2022-10-18T17:02:35.000Z,99350.25
2022-10-18T17:07:34.000Z,99376.36
2022-10-18T17:12:34.000Z,99384.05
2022-10-18T17:17:35.000Z,99392.69
2022-10-18T17:22:34.000Z,99404.61
2022-10-18T17:27:34.000Z,99407.92
2022-10-18T17:32:35.000Z,99403.93
2022-10-18T17:47:35.000Z,99408.55
2022-10-18T17:52:34.000Z,99412.01
2022-10-18T17:57:34.000Z,99404.48
2022-10-18T18:02:35.000Z,99407.16
2022-10-18T18:07:35.000Z,99411.32
2022-10-18T18:12:35.000Z,99426.49
2022-10-18T18:17:44.000Z,99427.36
2022-10-18T18:22:34.000Z,99417.13
2022-10-18T18:27:35.000Z,99430.78
2022-10-18T18:32:35.000Z,99424.62
2022-10-18T18:37:35.000Z,99434.08
2022-10-18T18:42:35.000Z,99436.89
2022-10-18T18:47:35.000Z,99437.51
2022-10-18T18:52:35.000Z,99437.51
2022-10-18T18:57:35.000Z,99446.68
2022-10-18T19:02:34.000Z,99449.32
2022-10-18T19:07:35.000Z,99440
2022-10-18T19:12:34.000Z,99438.86
2022-10-18T19:17:35.000Z,99432.28
2022-10-18T19:22:35.000Z,99429.07
2022-10-18T19:27:34.000Z,99409.41
2022-10-18T19:32:35.000Z,99425.48
2022-10-18T19:37:35.000Z,99457.38
2022-10-18T19:42:41.000Z,99458.43
2022-10-18T19:47:34.000Z,99444.1
2022-10-18T19:57:34.000Z,99455.1
2022-10-18T20:02:35.000Z,99446.44
2022-10-18T20:07:35.000Z,99445.57
2022-10-18T20:12:35.000Z,99439.9
2022-10-18T20:17:34.000Z,99439.69
2022-10-18T20:22:35.000Z,99439.69
2022-10-18T20:27:35.000Z,99450.25
2022-10-18T20:32:35.000Z,99448.66
2022-10-18T20:37:34.000Z,99445.85
2022-10-18T20:42:35.000Z,99427.71
2022-10-18T20:47:35.000Z,99420.17
2022-10-18T20:52:35.000Z,99415.86
2022-10-18T20:57:35.000Z,99417.37
2022-10-18T21:02:35.000Z,99421.41
2022-10-18T21:07:34.000Z,99421.78
2022-10-18T21:12:39.000Z,99424.8
2022-10-18T21:22:35.000Z,99408.45
2022-10-18T21:27:34.000Z,99415.9
2022-10-18T21:37:34.000Z,99418.49
2022-10-18T21:42:34.000Z,99406.68
2022-10-18T21:47:34.000Z,99402.07
2022-10-18T21:52:35.000Z,99402.54
2022-10-18T22:02:34.000Z,99400.98
2022-10-18T22:07:35.000Z,99406.72
2022-10-18T22:12:35.000Z,99402.57
2022-10-18T22:17:35.000Z,99395.95
2022-10-18T22:22:35.000Z,99390.48
2022-10-18T22:27:34.000Z,99390.48
2022-10-18T22:32:35.000Z,99391.33
2022-10-18T22:37:35.000Z,99383.32
2022-10-18T22:42:35.000Z,99372.2
2022-10-18T22:47:35.000Z,99369.65
2022-10-18T22:52:35.000Z,99364.01
2022-10-18T22:57:34.000Z,99355.25
2022-10-18T23:02:35.000Z,99351.97
2022-10-18T23:07:34.000Z,99355.58
2022-10-18T23:12:35.000Z,99347.16
2022-10-18T23:17:34.000Z,99331.24
2022-10-18T23:22:34.000Z,99322.64
2022-10-18T23:27:34.000Z,99312.13
2022-10-18T23:32:34.000Z,99310.36
2022-10-18T23:37:35.000Z,99299.33
2022-10-18T23:42:35.000Z,99299.33
2022-10-18T23:47:34.000Z,99281.83
2022-10-18T23:52:35.000Z,99273.48
2022-10-18T23:57:35.000Z,99272.18
